Aérodrome :
LOGIN :

S'inscrire | Disclaimer

   EN    FR    IT 

 










Légende :    VFR   VFR Marginal   IFR   IFR Intensif   IFR Très Intensif
Visi : 
Plafond : 
>= 8 km
>= 3000ft
5 à 8 km
1000 à 3000 ft
1500m à 5 km
500 à 1000 ft
800 à 1500m
200 à 500 ft
< 800m
< 200 ft
Symboles :   Orages  Brouillard  Fortes neiges  Fortes précipitations  Vent > 20 kt
SIGMETs :   Divers  Orages  Givrage  Turbulence  Onde Orograph.  Cendres Volcan.







- Altitude de l'aérodrome : 49 ft
- Code IATA : GLZ


EHGR - Gilze-Rijen Airbase

DERNIER METAR :
  • 142225Z AUTO 22003KT 9999 OVC052 18/14 Q1018 BLU

METARs EXPIRÉS :
  • 142214Z AUTO 20003KT 9999 SCT022 OVC050 18/14 Q1018 WHT
  • 142155Z AUTO 21003KT 190V260 9999 OVC049 18/14 Q1018 BLU
  • 142125Z AUTO VRB02KT 9999 BKN050 18/14 Q1018 BLU 24004KT 9999 FEW035 BKN045
  • 142058Z AUTO VRB02KT 9999 OVC045 19/14 Q1018 BLU 24004KT 9999 FEW035 BKN045
  • 142055Z AUTO VRB02KT 9999 OVC045 19/14 Q1017 BLU 24006KT 9999 SCT035 BKN050
  • 142025Z AUTO 23003KT 210V270 9999 SCT040 OVC044 19/14 Q1017 BLU 24006KT 9999 SCT035 BKN050
  • 141955Z AUTO 25004KT 220V280 9999 SCT041 OVC046 19/13 Q1018 BLU 27010KT 9999 SCT035 BKN050

TAF TAF EHGR
Valide du 14 à 21h jusqu'au 15 à 09h UTC


142019Z 1421/1509 23003KT 9999 BKN045
BECMG 1503/1505 4000 BR SCT005 BKN010
BECMG 1507/1509 9999 NSW SCT015
Pas de NOTAMs connus pour ce terrain.



MET'MAP, la Météo Aéronautique d'un coup d'oeil ! - Copyright ORBIFLY Décembre 2007 - Disclaimer

ORBIFLY MET'MAP TEAM :

Programmation & Développement : Alexandra Zaïnal
Conception & Développement : Baudouin d'Aumeries
Co-Programmation & Développement : Marc-Olivier Méhu
Soutien technique & logistique : Manuel Goepfert

Contact : metmap@orbifly.com




SOURCES & CREDITS :

   NOAA